createdAt,value
2022-09-27T00:00:11.709Z,11.91
2022-09-27T00:01:11.775Z,11.90
2022-09-27T00:02:11.794Z,11.88
2022-09-27T00:03:11.789Z,11.86
2022-09-27T00:04:11.675Z,11.84
2022-09-27T00:05:11.662Z,11.81
2022-09-27T00:06:11.642Z,11.84
2022-09-27T00:07:11.673Z,11.86
2022-09-27T00:08:11.621Z,11.87
2022-09-27T00:09:11.612Z,11.90
2022-09-27T00:10:11.605Z,11.91
2022-09-27T00:11:11.580Z,11.94
2022-09-27T00:12:11.723Z,11.99
2022-09-27T00:13:11.558Z,12.00
2022-09-27T00:14:11.543Z,12.10
2022-09-27T00:15:11.523Z,12.21
2022-09-27T00:16:11.572Z,12.21
2022-09-27T00:17:11.544Z,12.22
2022-09-27T00:18:11.480Z,12.21
2022-09-27T00:19:11.473Z,12.20
2022-09-27T00:20:11.476Z,12.24
2022-09-27T00:21:11.465Z,12.21
2022-09-27T00:22:11.499Z,12.17
2022-09-27T00:23:11.435Z,12.17
2022-09-27T00:24:11.449Z,12.18
2022-09-27T00:25:11.429Z,12.18
2022-09-27T00:26:11.425Z,12.18
2022-09-27T00:27:11.457Z,12.17
2022-09-27T00:28:11.385Z,12.17
2022-09-27T00:29:11.382Z,12.25
2022-09-27T00:30:11.352Z,12.27
2022-09-27T00:31:11.398Z,12.25
2022-09-27T00:32:11.397Z,12.24
2022-09-27T00:33:11.340Z,12.25
2022-09-27T00:34:11.326Z,12.24
2022-09-27T00:35:11.302Z,12.22
2022-09-27T00:36:11.305Z,12.20
2022-09-27T00:37:11.336Z,12.18
2022-09-27T00:38:11.281Z,12.22
2022-09-27T00:39:11.294Z,12.22
2022-09-27T00:40:13.175Z,12.21
2022-09-27T00:41:11.302Z,12.21
2022-09-27T00:42:11.273Z,12.20
2022-09-27T00:43:11.217Z,12.18
2022-09-27T00:44:11.213Z,12.17
2022-09-27T00:45:11.181Z,12.17
2022-09-27T00:46:11.249Z,12.18
2022-09-27T00:47:11.218Z,12.17
2022-09-27T00:48:11.156Z,12.13
2022-09-27T00:49:11.141Z,12.13
2022-09-27T00:50:11.131Z,12.13
2022-09-27T00:51:11.126Z,12.15
2022-09-27T00:52:11.156Z,12.15
2022-09-27T00:53:11.102Z,12.20
2022-09-27T00:54:11.107Z,12.21
2022-09-27T00:55:11.084Z,12.18
2022-09-27T00:56:11.093Z,12.15
2022-09-27T00:57:11.107Z,12.12
2022-09-27T00:58:11.045Z,12.15
2022-09-27T00:59:11.140Z,12.13
2022-09-27T01:00:11.028Z,12.13
2022-09-27T01:01:11.051Z,12.10
2022-09-27T01:02:11.078Z,12.09
2022-09-27T01:03:10.981Z,12.17
2022-09-27T01:04:10.983Z,12.17
2022-09-27T01:05:10.959Z,12.15
2022-09-27T01:06:10.978Z,12.10
2022-09-27T01:07:10.996Z,12.10
2022-09-27T01:08:10.939Z,12.09
2022-09-27T01:09:11.072Z,12.07
2022-09-27T01:10:10.920Z,12.09
2022-09-27T01:11:10.901Z,12.07
2022-09-27T01:12:10.930Z,12.07
2022-09-27T01:13:10.883Z,12.07
2022-09-27T01:14:10.871Z,12.13
2022-09-27T01:15:10.868Z,12.12
2022-09-27T01:16:10.879Z,12.12
2022-09-27T01:17:10.874Z,12.22
2022-09-27T01:18:10.813Z,12.20
2022-09-27T01:19:10.845Z,12.20
2022-09-27T01:20:10.781Z,12.21
2022-09-27T01:21:10.777Z,12.20
2022-09-27T01:22:10.802Z,12.21
2022-09-27T01:23:10.764Z,12.22
2022-09-27T01:24:10.783Z,12.25
2022-09-27T01:25:10.733Z,12.27
2022-09-27T01:26:10.741Z,12.28
2022-09-27T01:27:10.768Z,12.24
2022-09-27T01:28:10.697Z,12.28
2022-09-27T01:29:10.759Z,12.31
2022-09-27T01:30:10.676Z,12.35
2022-09-27T01:31:10.723Z,12.31
2022-09-27T01:32:10.717Z,12.37
2022-09-27T01:33:10.669Z,12.40
2022-09-27T01:34:10.628Z,12.37
2022-09-27T01:35:10.628Z,12.39
2022-09-27T01:36:10.620Z,12.35
2022-09-27T01:37:10.660Z,12.35
2022-09-27T01:38:10.605Z,12.39
2022-09-27T01:39:10.623Z,12.36
2022-09-27T01:40:10.584Z,12.31
2022-09-27T01:41:10.569Z,12.29
2022-09-27T01:42:12.949Z,12.28
2022-09-27T01:43:10.540Z,12.27
2022-09-27T01:44:10.526Z,12.27
2022-09-27T01:45:10.508Z,12.27
2022-09-27T01:46:10.560Z,12.25
2022-09-27T01:47:10.530Z,12.27
2022-09-27T01:48:10.478Z,12.31
2022-09-27T01:49:10.486Z,12.35
2022-09-27T01:50:10.441Z,12.36
2022-09-27T01:51:10.438Z,12.42
2022-09-27T01:52:10.468Z,12.54
2022-09-27T01:53:10.438Z,12.55
2022-09-27T01:54:10.394Z,12.53
2022-09-27T01:55:10.403Z,12.50
2022-09-27T01:56:10.398Z,12.49
2022-09-27T01:57:10.431Z,12.49
2022-09-27T01:58:10.380Z,12.49
2022-09-27T01:59:10.416Z,12.46
2022-09-27T02:00:10.331Z,12.46
2022-09-27T02:01:10.391Z,12.50
2022-09-27T02:02:10.437Z,12.54
2022-09-27T02:03:10.330Z,12.60
2022-09-27T02:04:10.297Z,12.64
2022-09-27T02:05:10.302Z,12.65
2022-09-27T02:06:12.549Z,12.62
2022-09-27T02:07:10.320Z,12.60
2022-09-27T02:08:10.240Z,12.58
2022-09-27T02:09:10.306Z,12.62
2022-09-27T02:10:10.244Z,12.64
2022-09-27T02:11:10.225Z,12.61
2022-09-27T02:12:10.249Z,12.62
2022-09-27T02:13:10.196Z,12.67
2022-09-27T02:14:10.198Z,12.64
2022-09-27T02:15:10.169Z,12.60
2022-09-27T02:16:10.191Z,12.54
2022-09-27T02:17:10.194Z,12.50
2022-09-27T02:18:10.140Z,12.47
2022-09-27T02:19:10.218Z,12.49
2022-09-27T02:20:10.103Z,12.50
2022-09-27T02:21:10.088Z,12.53
2022-09-27T02:22:10.120Z,12.54
2022-09-27T02:23:10.084Z,12.54
2022-09-27T02:24:10.083Z,12.55
2022-09-27T02:25:10.060Z,12.55
2022-09-27T02:26:10.057Z,12.57
2022-09-27T02:27:10.096Z,12.57
2022-09-27T02:28:10.040Z,12.54
2022-09-27T02:29:10.042Z,12.55
2022-09-27T02:30:09.991Z,12.58
2022-09-27T02:31:10.113Z,12.61
2022-09-27T02:32:10.031Z,12.58
2022-09-27T02:33:09.978Z,12.55
2022-09-27T02:34:09.963Z,12.64
2022-09-27T02:35:09.963Z,12.67
2022-09-27T02:36:09.944Z,12.67
2022-09-27T02:37:09.976Z,12.65
2022-09-27T02:38:09.925Z,12.62
2022-09-27T02:39:09.895Z,12.64
2022-09-27T02:40:09.896Z,12.62
2022-09-27T02:41:09.888Z,12.62
2022-09-27T02:42:09.913Z,12.60
2022-09-27T02:43:09.858Z,12.57
2022-09-27T02:44:09.848Z,12.57
2022-09-27T02:45:09.831Z,12.60
2022-09-27T02:46:09.888Z,12.57
2022-09-27T02:47:09.852Z,12.54
2022-09-27T02:48:09.795Z,12.50
2022-09-27T02:49:09.799Z,12.49
2022-09-27T02:50:09.770Z,12.50
2022-09-27T02:51:09.756Z,12.54
2022-09-27T02:52:09.785Z,12.60
2022-09-27T02:53:09.742Z,12.60
2022-09-27T02:54:09.759Z,12.60
2022-09-27T02:55:09.721Z,12.58
2022-09-27T02:56:09.718Z,12.57
2022-09-27T02:57:09.763Z,12.54
2022-09-27T02:58:09.693Z,12.53
2022-09-27T02:59:09.734Z,12.49
2022-09-27T03:00:09.661Z,12.46
2022-09-27T03:01:09.693Z,12.45
2022-09-27T03:02:13.376Z,12.46
2022-09-27T03:03:09.703Z,12.46
2022-09-27T03:04:09.614Z,12.47
2022-09-27T03:05:09.620Z,12.58
2022-09-27T03:06:09.593Z,12.58
2022-09-27T03:07:09.633Z,12.68
2022-09-27T03:08:09.580Z,12.79
2022-09-27T03:09:09.561Z,12.80
2022-09-27T03:10:09.554Z,12.79
2022-09-27T03:11:09.533Z,12.82
2022-09-27T03:12:09.573Z,12.79
2022-09-27T03:13:09.525Z,12.73
2022-09-27T03:14:09.601Z,12.76
2022-09-27T03:15:09.497Z,12.76
2022-09-27T03:16:09.477Z,12.72
2022-09-27T03:17:09.648Z,12.70
2022-09-27T03:18:09.454Z,12.68
2022-09-27T03:19:09.457Z,12.65
2022-09-27T03:20:09.416Z,12.61
2022-09-27T03:21:09.418Z,12.62
2022-09-27T03:22:09.452Z,12.65
2022-09-27T03:23:09.398Z,12.67
2022-09-27T03:24:09.393Z,12.67
2022-09-27T03:25:09.383Z,12.70
2022-09-27T03:26:12.856Z,12.67
2022-09-27T03:27:09.421Z,12.70
2022-09-27T03:28:09.358Z,12.72
2022-09-27T03:29:09.350Z,12.67
2022-09-27T03:30:09.338Z,12.64
2022-09-27T03:31:09.371Z,12.60
2022-09-27T03:32:09.347Z,12.55
2022-09-27T03:33:09.308Z,12.49
2022-09-27T03:34:09.280Z,12.45
2022-09-27T03:35:09.286Z,12.46
2022-09-27T03:36:09.238Z,12.49
2022-09-27T03:37:09.296Z,12.50
2022-09-27T03:38:09.233Z,12.53
2022-09-27T03:39:09.251Z,12.53
2022-09-27T03:40:09.230Z,12.53
2022-09-27T03:41:09.202Z,12.53
2022-09-27T03:42:09.243Z,12.50
2022-09-27T03:43:09.177Z,12.47
2022-09-27T03:44:09.178Z,12.42
2022-09-27T03:45:09.154Z,12.37
2022-09-27T03:46:09.192Z,12.37
2022-09-27T03:47:09.179Z,12.36
2022-09-27T03:48:09.112Z,12.31
2022-09-27T03:49:09.186Z,12.29
2022-09-27T03:50:09.094Z,12.28
2022-09-27T03:51:09.091Z,12.24
2022-09-27T03:52:09.130Z,12.24
2022-09-27T03:53:09.060Z,12.29
2022-09-27T03:54:09.060Z,12.32
2022-09-27T03:55:09.038Z,12.32
2022-09-27T03:56:09.031Z,12.28
2022-09-27T03:57:09.074Z,12.27
2022-09-27T03:58:09.009Z,12.29
2022-09-27T03:59:09.004Z,12.31
2022-09-27T04:00:09.065Z,12.31
2022-09-27T04:01:09.015Z,12.36
2022-09-27T04:02:09.020Z,12.40
2022-09-27T04:03:08.964Z,12.42
2022-09-27T04:04:11.191Z,12.42
2022-09-27T04:05:08.946Z,12.39
2022-09-27T04:06:08.923Z,12.40
2022-09-27T04:07:08.964Z,12.36
2022-09-27T04:08:08.896Z,12.29
2022-09-27T04:09:08.945Z,12.31
2022-09-27T04:10:08.876Z,12.29
2022-09-27T04:11:08.863Z,12.31
2022-09-27T04:12:08.888Z,12.37
2022-09-27T04:13:08.885Z,12.42
2022-09-27T04:14:08.847Z,12.45
2022-09-27T04:15:08.830Z,12.46
2022-09-27T04:16:08.821Z,12.45
2022-09-27T04:17:08.909Z,12.43
2022-09-27T04:18:08.782Z,12.40
2022-09-27T04:19:08.873Z,12.39
2022-09-27T04:20:08.761Z,12.42
2022-09-27T04:21:08.773Z,12.40
2022-09-27T04:22:08.760Z,12.45
2022-09-27T04:23:08.719Z,12.45
2022-09-27T04:24:08.738Z,12.42
2022-09-27T04:25:08.706Z,12.35
2022-09-27T04:26:08.705Z,12.29
2022-09-27T04:27:08.741Z,12.35
2022-09-27T04:28:08.678Z,12.36
2022-09-27T04:29:08.718Z,12.32
2022-09-27T04:30:08.656Z,12.29
2022-09-27T04:31:08.715Z,12.31
2022-09-27T04:32:08.667Z,12.29
2022-09-27T04:33:08.635Z,12.32
2022-09-27T04:34:08.608Z,12.29
2022-09-27T04:35:08.596Z,12.35
2022-09-27T04:36:08.585Z,12.31
2022-09-27T04:37:08.624Z,12.29
2022-09-27T04:38:08.560Z,12.28
2022-09-27T04:39:08.640Z,12.29
2022-09-27T04:40:08.540Z,12.27
2022-09-27T04:41:08.525Z,12.28
2022-09-27T04:42:08.551Z,12.28
2022-09-27T04:43:08.500Z,12.35
2022-09-27T04:44:08.503Z,12.35
2022-09-27T04:45:08.500Z,12.32
2022-09-27T04:46:08.564Z,12.31
2022-09-27T04:47:08.540Z,12.32
2022-09-27T04:48:08.447Z,12.29
2022-09-27T04:49:08.536Z,12.27
2022-09-27T04:50:08.418Z,12.25
2022-09-27T04:51:08.434Z,12.25
2022-09-27T04:52:08.427Z,12.25
2022-09-27T04:53:08.370Z,12.25
2022-09-27T04:54:08.372Z,12.27
2022-09-27T04:55:08.364Z,12.27
2022-09-27T04:56:08.355Z,12.27
2022-09-27T04:57:08.391Z,12.31
2022-09-27T04:58:08.336Z,12.35
2022-09-27T04:59:09.894Z,12.35
2022-09-27T05:00:08.327Z,12.35
2022-09-27T05:01:08.331Z,12.31
2022-09-27T05:02:08.386Z,12.31
2022-09-27T05:03:08.282Z,12.32
2022-09-27T05:04:08.253Z,12.32
2022-09-27T05:05:08.265Z,12.27
2022-09-27T05:06:08.234Z,12.22
2022-09-27T05:07:08.299Z,12.25
2022-09-27T05:08:08.223Z,12.25
2022-09-27T05:09:08.253Z,12.22
2022-09-27T05:10:08.232Z,12.20
2022-09-27T05:11:08.184Z,12.13
2022-09-27T05:12:08.202Z,12.07
2022-09-27T05:13:08.174Z,11.99
2022-09-27T05:14:08.174Z,11.95
2022-09-27T05:15:08.143Z,11.90
2022-09-27T05:16:08.155Z,11.86
2022-09-27T05:17:08.208Z,11.80
2022-09-27T05:18:08.100Z,11.78
2022-09-27T05:19:08.093Z,11.72
2022-09-27T05:20:08.077Z,11.69
2022-09-27T05:21:08.082Z,11.68
2022-09-27T05:22:08.093Z,11.63
2022-09-27T05:23:08.036Z,11.62
2022-09-27T05:24:08.022Z,11.59
2022-09-27T05:25:08.011Z,11.59
2022-09-27T05:26:08.022Z,11.59
2022-09-27T05:27:08.003Z,11.57
2022-09-27T05:28:08.056Z,11.55
2022-09-27T05:29:08.062Z,11.57
2022-09-27T05:30:07.993Z,11.59
2022-09-27T05:31:07.977Z,11.57
2022-09-27T05:32:07.971Z,11.59
2022-09-27T05:33:07.999Z,11.59
2022-09-27T05:34:07.925Z,11.63
2022-09-27T05:35:07.912Z,11.65
2022-09-27T05:36:07.921Z,11.65
2022-09-27T05:37:07.909Z,11.66
2022-09-27T05:38:07.938Z,11.68
2022-09-27T05:39:07.878Z,11.68
2022-09-27T05:40:22.380Z,11.69
2022-09-27T05:41:08.911Z,11.69
2022-09-27T05:42:07.837Z,11.68
2022-09-27T05:43:07.868Z,11.72
2022-09-27T05:44:07.827Z,11.70
2022-09-27T05:45:07.810Z,11.70
2022-09-27T05:46:07.847Z,11.70
2022-09-27T05:47:07.795Z,11.73
2022-09-27T05:48:07.829Z,11.69
2022-09-27T05:49:07.751Z,11.72
2022-09-27T05:50:07.746Z,11.72
2022-09-27T05:51:07.745Z,11.75
2022-09-27T05:52:10.073Z,11.75
2022-09-27T05:53:07.743Z,11.73
2022-09-27T05:54:07.693Z,11.72
2022-09-27T05:55:07.715Z,11.72
2022-09-27T05:56:07.693Z,11.68
2022-09-27T05:57:07.680Z,11.70
2022-09-27T05:58:07.690Z,11.68
2022-09-27T05:59:07.652Z,11.68
2022-09-27T06:00:07.666Z,11.72
2022-09-27T06:01:07.614Z,11.72
2022-09-27T06:02:07.714Z,11.70
2022-09-27T06:03:07.696Z,11.72
2022-09-27T06:04:07.596Z,11.77
2022-09-27T06:05:07.576Z,11.81
2022-09-27T06:06:07.576Z,11.83
2022-09-27T06:07:07.555Z,11.88
2022-09-27T06:08:07.605Z,11.90
2022-09-27T06:09:07.534Z,11.87
2022-09-27T06:10:07.530Z,11.86
2022-09-27T06:11:07.513Z,11.87
2022-09-27T06:12:07.497Z,11.91
2022-09-27T06:13:07.544Z,11.88
2022-09-27T06:14:07.481Z,11.91
2022-09-27T06:15:07.450Z,11.88
2022-09-27T06:16:07.457Z,11.84
2022-09-27T06:17:07.435Z,11.78
2022-09-27T06:18:07.469Z,11.77
2022-09-27T06:19:07.420Z,11.77
2022-09-27T06:20:07.414Z,11.70
2022-09-27T06:21:07.389Z,11.70
2022-09-27T06:22:07.437Z,11.70
2022-09-27T06:23:07.361Z,11.72
2022-09-27T06:24:07.347Z,11.69
2022-09-27T06:25:07.336Z,11.69
2022-09-27T06:26:07.337Z,11.70
2022-09-27T06:27:07.359Z,11.69
2022-09-27T06:28:07.329Z,11.69
2022-09-27T06:29:07.317Z,11.68
2022-09-27T06:30:07.294Z,11.68
2022-09-27T06:31:07.295Z,11.68
2022-09-27T06:32:07.306Z,11.65
2022-09-27T06:33:07.266Z,11.66
2022-09-27T06:34:07.271Z,11.66
2022-09-27T06:35:07.231Z,11.66
2022-09-27T06:36:07.347Z,11.70
2022-09-27T06:37:07.289Z,11.73
2022-09-27T06:38:07.229Z,11.77
2022-09-27T06:39:07.195Z,11.73
2022-09-27T06:40:07.214Z,11.73
2022-09-27T06:41:07.200Z,11.77
2022-09-27T06:42:07.153Z,11.77
2022-09-27T06:43:07.185Z,11.78
2022-09-27T06:44:07.142Z,11.75
2022-09-27T06:45:07.106Z,11.72
2022-09-27T06:46:07.191Z,11.73
2022-09-27T06:47:07.093Z,11.70
2022-09-27T06:48:07.131Z,11.68
2022-09-27T06:49:07.072Z,11.69
2022-09-27T06:50:07.083Z,11.70
2022-09-27T06:51:07.052Z,11.70
2022-09-27T06:52:07.065Z,11.72
2022-09-27T06:53:07.099Z,11.73
2022-09-27T06:54:07.076Z,11.77
2022-09-27T06:55:07.015Z,11.78
2022-09-27T06:56:07.023Z,11.73
2022-09-27T06:57:07.001Z,11.78
2022-09-27T06:58:07.037Z,11.83
2022-09-27T06:59:06.974Z,11.88
2022-09-27T07:00:06.962Z,11.88
2022-09-27T07:01:07.035Z,11.91
2022-09-27T07:02:07.038Z,11.91
2022-09-27T07:03:06.966Z,12.02
2022-09-27T07:04:06.933Z,12.02
2022-09-27T07:05:06.908Z,11.99
2022-09-27T07:06:06.898Z,11.99
2022-09-27T07:07:06.972Z,12.02
2022-09-27T07:08:06.915Z,12.02
2022-09-27T07:09:06.864Z,12.06
2022-09-27T07:10:09.891Z,12.04
2022-09-27T07:11:06.843Z,12.07
2022-09-27T07:12:06.838Z,12.10
2022-09-27T07:13:06.835Z,12.04
2022-09-27T07:14:06.793Z,12.02
2022-09-27T07:15:06.775Z,12.02
2022-09-27T07:16:06.798Z,12.00
2022-09-27T07:17:06.789Z,12.02
2022-09-27T07:18:06.801Z,12.06
2022-09-27T07:19:06.738Z,12.04
2022-09-27T07:20:06.754Z,11.99
2022-09-27T07:21:06.711Z,12.00
2022-09-27T07:22:06.713Z,11.97
2022-09-27T07:23:06.750Z,12.00
2022-09-27T07:24:06.673Z,12.00
2022-09-27T07:25:06.661Z,11.99
2022-09-27T07:26:06.682Z,11.99
2022-09-27T07:27:06.641Z,12.02
2022-09-27T07:28:06.686Z,12.00
2022-09-27T07:29:06.640Z,11.97
2022-09-27T07:30:06.616Z,11.97
2022-09-27T07:31:06.658Z,12.03
2022-09-27T07:32:06.575Z,12.03
2022-09-27T07:33:06.639Z,11.97
2022-09-27T07:34:06.596Z,11.91
2022-09-27T07:35:06.603Z,11.95
2022-09-27T07:36:06.558Z,11.94
2022-09-27T07:37:06.547Z,11.95
2022-09-27T07:38:06.608Z,11.94
2022-09-27T07:39:06.525Z,11.95
2022-09-27T07:40:06.520Z,11.99
2022-09-27T07:41:06.489Z,12.02
2022-09-27T07:42:06.478Z,12.03
2022-09-27T07:43:06.491Z,11.99
2022-09-27T07:44:06.474Z,11.95
2022-09-27T07:45:09.141Z,11.94
2022-09-27T07:46:06.482Z,11.95
2022-09-27T07:47:06.433Z,11.90
2022-09-27T07:48:06.466Z,11.88
2022-09-27T07:49:06.423Z,11.94
2022-09-27T07:50:06.409Z,11.97
2022-09-27T07:51:06.386Z,12.00
2022-09-27T07:52:06.371Z,12.02
2022-09-27T07:53:06.402Z,12.06
2022-09-27T07:54:08.738Z,12.15
2022-09-27T07:55:06.329Z,12.15
2022-09-27T07:56:06.368Z,12.21
2022-09-27T07:57:06.319Z,12.36
2022-09-27T07:58:06.359Z,12.39
2022-09-27T07:59:06.294Z,12.50
2022-09-27T08:00:06.284Z,12.61
2022-09-27T08:01:06.327Z,12.67
2022-09-27T08:02:06.270Z,12.78
2022-09-27T08:03:06.290Z,12.78
2022-09-27T08:04:06.232Z,12.90
2022-09-27T08:05:06.208Z,12.80
2022-09-27T08:06:06.218Z,12.90
2022-09-27T08:07:06.193Z,12.95
2022-09-27T08:08:06.240Z,13.01
2022-09-27T08:09:06.184Z,13.04
2022-09-27T08:10:06.184Z,12.94
2022-09-27T08:11:06.186Z,13.00
2022-09-27T08:12:06.139Z,13.03
2022-09-27T08:13:06.160Z,12.82
2022-09-27T08:14:06.121Z,12.87
2022-09-27T08:15:06.099Z,12.85
2022-09-27T08:16:06.157Z,12.95
2022-09-27T08:17:06.096Z,13.01
2022-09-27T08:18:06.135Z,13.03
2022-09-27T08:19:06.067Z,13.03
2022-09-27T08:20:06.072Z,13.12
2022-09-27T08:21:06.030Z,13.18
2022-09-27T08:22:06.043Z,13.12
2022-09-27T08:23:06.136Z,13.04
2022-09-27T08:24:06.033Z,13.04
2022-09-27T08:25:06.012Z,13.05
2022-09-27T08:26:06.012Z,13.05
2022-09-27T08:27:10.743Z,13.11
2022-09-27T08:28:07.014Z,13.18
2022-09-27T08:29:05.959Z,13.08
2022-09-27T08:30:05.946Z,13.16
2022-09-27T08:31:05.928Z,13.20
2022-09-27T08:32:05.919Z,13.46
2022-09-27T08:33:05.941Z,13.67
2022-09-27T08:34:05.932Z,13.59
2022-09-27T08:35:05.881Z,13.71
2022-09-27T08:36:05.902Z,13.71
2022-09-27T08:37:05.864Z,13.65
2022-09-27T08:38:05.941Z,13.81
2022-09-27T08:39:05.841Z,13.86
2022-09-27T08:40:05.816Z,13.90
2022-09-27T08:41:05.815Z,14.05
2022-09-27T08:42:05.800Z,14.25
2022-09-27T08:43:05.826Z,14.41
2022-09-27T08:44:05.771Z,14.51
2022-09-27T08:45:05.771Z,14.44
2022-09-27T08:46:05.770Z,14.48
2022-09-27T08:47:05.805Z,14.58
2022-09-27T08:48:05.768Z,14.58
2022-09-27T08:49:05.718Z,14.55
2022-09-27T08:50:05.827Z,14.53
2022-09-27T08:51:05.700Z,14.55
2022-09-27T08:52:05.748Z,14.44
2022-09-27T08:53:05.684Z,14.48
2022-09-27T08:54:05.710Z,14.36
2022-09-27T08:55:05.667Z,14.55
2022-09-27T08:56:05.665Z,14.63
2022-09-27T08:57:05.669Z,14.77
2022-09-27T08:58:05.616Z,14.69
2022-09-27T08:59:05.624Z,14.73
2022-09-27T09:00:05.592Z,14.79
2022-09-27T09:01:05.654Z,14.94
2022-09-27T09:02:05.672Z,15.03
2022-09-27T09:03:05.571Z,15.04
2022-09-27T09:04:05.545Z,14.82
2022-09-27T09:05:05.528Z,14.66
2022-09-27T09:06:05.521Z,14.70
2022-09-27T09:07:05.521Z,14.65
2022-09-27T09:08:05.557Z,14.77
2022-09-27T09:09:05.491Z,14.79
2022-09-27T09:10:05.475Z,14.81
2022-09-27T09:11:05.458Z,14.78
2022-09-27T09:12:05.451Z,14.91
2022-09-27T09:13:05.496Z,14.86
2022-09-27T09:14:06.772Z,14.92
2022-09-27T09:15:05.434Z,15.02
2022-09-27T09:16:05.528Z,15.07
2022-09-27T09:17:05.405Z,15.09
2022-09-27T09:18:05.465Z,14.97
2022-09-27T09:19:05.379Z,15.11
2022-09-27T09:20:05.383Z,15.25
2022-09-27T09:21:05.353Z,15.25
2022-09-27T09:22:05.360Z,15.15
2022-09-27T09:23:05.390Z,15.10
2022-09-27T09:24:05.371Z,15.07
2022-09-27T09:25:05.321Z,14.94
2022-09-27T09:26:05.318Z,14.94
2022-09-27T09:27:05.300Z,14.99
2022-09-27T09:28:05.331Z,15.14
2022-09-27T09:29:05.288Z,15.19
2022-09-27T09:30:05.254Z,15.22
2022-09-27T09:31:05.267Z,15.31
2022-09-27T09:32:05.275Z,15.29
2022-09-27T09:33:05.272Z,15.09
2022-09-27T09:34:05.197Z,15.02
2022-09-27T09:35:05.186Z,15.03
2022-09-27T09:36:05.176Z,15.00
2022-09-27T09:37:05.177Z,15.07
2022-09-27T09:38:05.209Z,14.99
2022-09-27T09:39:05.173Z,15.07
2022-09-27T09:40:08.870Z,15.31
2022-09-27T09:41:05.155Z,15.33
2022-09-27T09:42:05.141Z,15.36
2022-09-27T09:43:05.188Z,15.51
2022-09-27T09:44:05.101Z,15.68
2022-09-27T09:45:05.089Z,15.79
2022-09-27T09:46:05.109Z,15.75
2022-09-27T09:47:05.076Z,15.61
2022-09-27T09:48:05.125Z,15.70
2022-09-27T09:49:05.059Z,15.61
2022-09-27T09:50:05.031Z,15.62
2022-09-27T09:51:05.015Z,15.40
2022-09-27T09:52:08.786Z,15.29
2022-09-27T09:53:05.042Z,15.19
2022-09-27T09:54:04.995Z,15.19
2022-09-27T09:55:05.029Z,15.27
2022-09-27T09:56:04.985Z,15.24
2022-09-27T09:57:04.975Z,15.19
2022-09-27T09:58:04.999Z,15.22
2022-09-27T09:59:04.944Z,15.33
2022-09-27T10:00:04.917Z,15.43
2022-09-27T10:01:04.968Z,15.47
2022-09-27T10:02:04.968Z,15.70
2022-09-27T10:03:04.936Z,15.88
2022-09-27T10:04:04.886Z,16.04
2022-09-27T10:05:07.865Z,15.91
2022-09-27T10:06:04.836Z,16.10
2022-09-27T10:07:04.854Z,16.28
2022-09-27T10:08:04.876Z,16.39
2022-09-27T10:09:04.858Z,16.02
2022-09-27T10:10:04.816Z,15.97
2022-09-27T10:11:04.795Z,15.83
2022-09-27T10:12:04.810Z,15.77
2022-09-27T10:13:04.833Z,15.68
2022-09-27T10:14:04.778Z,15.65
2022-09-27T10:15:04.755Z,15.57
2022-09-27T10:16:04.756Z,15.64
2022-09-27T10:17:04.729Z,15.46
2022-09-27T10:18:04.771Z,15.36
2022-09-27T10:19:04.841Z,15.51
2022-09-27T10:20:04.694Z,15.75
2022-09-27T10:21:04.693Z,15.79
2022-09-27T10:22:04.673Z,15.82
2022-09-27T10:23:04.711Z,15.97
2022-09-27T10:24:04.659Z,15.97
2022-09-27T10:25:04.652Z,15.94
2022-09-27T10:26:04.633Z,16.08
2022-09-27T10:27:04.628Z,16.20
2022-09-27T10:28:04.667Z,16.33
2022-09-27T10:29:04.602Z,16.49
2022-09-27T10:30:04.608Z,16.68
2022-09-27T10:31:04.581Z,16.91
2022-09-27T10:32:04.563Z,17.44
2022-09-27T10:33:04.599Z,18.25
2022-09-27T10:34:04.517Z,18.84
2022-09-27T10:35:04.536Z,19.47
2022-09-27T10:36:04.506Z,19.64
2022-09-27T10:37:04.503Z,20.24
2022-09-27T10:38:04.559Z,20.07
2022-09-27T10:39:04.492Z,19.29
2022-09-27T10:40:04.471Z,18.26
2022-09-27T10:41:04.462Z,17.82
2022-09-27T10:42:04.462Z,17.59
2022-09-27T10:43:04.494Z,17.51
2022-09-27T10:44:04.440Z,17.57
2022-09-27T10:45:04.417Z,17.67
2022-09-27T10:46:04.445Z,17.46
2022-09-27T10:47:04.388Z,17.29
2022-09-27T10:48:04.443Z,17.09
2022-09-27T10:49:04.382Z,16.96
2022-09-27T10:50:04.357Z,16.87
2022-09-27T10:51:04.345Z,16.79
2022-09-27T10:52:04.347Z,16.58
2022-09-27T10:53:04.385Z,16.54
2022-09-27T10:54:04.363Z,16.41
2022-09-27T10:55:04.326Z,16.32
2022-09-27T10:56:04.305Z,16.15
2022-09-27T10:57:04.295Z,16.05
2022-09-27T10:58:04.318Z,15.95
2022-09-27T10:59:04.266Z,15.86
2022-09-27T11:00:04.265Z,15.67
2022-09-27T11:01:04.295Z,15.49
2022-09-27T11:02:04.245Z,15.28
2022-09-27T11:03:04.275Z,15.10
2022-09-27T11:04:04.189Z,14.94
2022-09-27T11:05:04.214Z,14.79
2022-09-27T11:06:04.175Z,14.48
2022-09-27T11:07:04.175Z,14.30
2022-09-27T11:08:04.237Z,14.14
2022-09-27T11:09:04.168Z,13.96
2022-09-27T11:10:04.142Z,13.74
2022-09-27T11:11:04.150Z,13.54
2022-09-27T11:12:04.116Z,13.44
2022-09-27T11:13:04.159Z,13.37
2022-09-27T11:14:04.095Z,13.30
2022-09-27T11:15:04.081Z,13.16
2022-09-27T11:16:04.133Z,13.13
2022-09-27T11:17:04.075Z,13.16
2022-09-27T11:18:04.078Z,13.13
2022-09-27T11:19:04.035Z,13.18
2022-09-27T11:20:04.013Z,13.25
2022-09-27T11:21:04.024Z,13.35
2022-09-27T11:22:04.007Z,13.41
2022-09-27T11:23:04.027Z,13.37
2022-09-27T11:24:03.974Z,13.42
2022-09-27T11:25:03.990Z,13.53
2022-09-27T11:26:03.952Z,13.50
2022-09-27T11:27:03.937Z,13.59
2022-09-27T11:28:03.981Z,13.77
2022-09-27T11:29:03.925Z,13.87
2022-09-27T11:30:03.911Z,13.96
2022-09-27T11:31:03.934Z,14.15
2022-09-27T11:32:03.939Z,14.30
2022-09-27T11:33:03.932Z,14.25
2022-09-27T11:34:03.855Z,14.29
2022-09-27T11:35:03.847Z,14.55
2022-09-27T11:36:03.827Z,14.85
2022-09-27T11:37:03.876Z,14.91
2022-09-27T11:38:03.817Z,14.96
2022-09-27T11:39:03.828Z,14.92
2022-09-27T11:40:03.833Z,14.81
2022-09-27T11:41:03.806Z,14.77
2022-09-27T11:42:03.833Z,14.48
2022-09-27T11:43:03.765Z,14.58
2022-09-27T11:44:03.744Z,14.54
2022-09-27T11:45:30.390Z,14.78
2022-09-27T11:46:19.164Z,14.89
2022-09-27T11:47:04.850Z,14.96
2022-09-27T11:48:03.828Z,14.97
2022-09-27T11:49:03.702Z,15.02
2022-09-27T11:50:03.686Z,14.94
2022-09-27T11:51:03.683Z,14.89
2022-09-27T11:52:03.709Z,14.73
2022-09-27T11:53:03.665Z,14.89
2022-09-27T11:54:03.651Z,14.88
2022-09-27T11:55:03.640Z,14.92
2022-09-27T11:56:03.619Z,15.04
2022-09-27T11:57:03.662Z,14.82
2022-09-27T11:58:03.610Z,14.68
2022-09-27T11:59:03.605Z,14.70
2022-09-27T12:00:03.579Z,14.65
2022-09-27T12:01:03.554Z,14.45
2022-09-27T12:02:03.706Z,14.25
2022-09-27T12:03:03.582Z,14.10
2022-09-27T12:04:03.531Z,13.83
2022-09-27T12:05:03.524Z,13.71
2022-09-27T12:06:07.320Z,13.63
2022-09-27T12:07:03.533Z,13.47
2022-09-27T12:08:03.476Z,13.35
2022-09-27T12:09:03.481Z,13.19
2022-09-27T12:10:03.461Z,12.93
2022-09-27T12:11:03.445Z,12.86
2022-09-27T12:12:03.484Z,12.72
2022-09-27T12:13:03.419Z,12.70
2022-09-27T12:14:03.418Z,12.58
2022-09-27T12:15:06.943Z,12.42
2022-09-27T12:16:03.417Z,12.42
2022-09-27T12:17:03.380Z,12.53
2022-09-27T12:18:03.400Z,12.58
2022-09-27T12:19:03.352Z,12.75
2022-09-27T12:20:03.334Z,12.98
2022-09-27T12:21:03.331Z,13.12
2022-09-27T12:22:03.338Z,13.16
2022-09-27T12:23:03.353Z,13.47
2022-09-27T12:24:03.329Z,13.75
2022-09-27T12:25:03.300Z,14.05
2022-09-27T12:26:03.259Z,14.40
2022-09-27T12:27:03.257Z,14.66
2022-09-27T12:28:03.289Z,14.69
2022-09-27T12:29:03.250Z,14.60
2022-09-27T12:30:03.232Z,14.59
2022-09-27T12:31:27.361Z,14.14
2022-09-27T12:32:04.235Z,14.04
2022-09-27T12:33:03.266Z,13.97
2022-09-27T12:34:03.159Z,13.77
2022-09-27T12:35:03.167Z,13.74
2022-09-27T12:36:03.147Z,13.60
2022-09-27T12:37:03.140Z,13.42
2022-09-27T12:38:03.184Z,13.30
2022-09-27T12:39:03.127Z,13.19
2022-09-27T12:40:03.111Z,13.19
2022-09-27T12:41:03.156Z,13.03
2022-09-27T12:42:03.109Z,12.98
2022-09-27T12:43:03.132Z,12.94
2022-09-27T12:44:03.078Z,12.72
2022-09-27T12:45:03.075Z,12.58
2022-09-27T12:46:03.073Z,12.47
2022-09-27T12:47:03.055Z,12.42
2022-09-27T12:48:03.069Z,12.43
2022-09-27T12:49:03.036Z,12.47
2022-09-27T12:50:02.996Z,12.60
2022-09-27T12:51:03.019Z,12.64
2022-09-27T12:52:02.982Z,12.58